Time;durP1;ratioP1;P1;durP2;ratioP2;P2;SDS_P1;SDS_P2;PMS_P1;PMS_P2;Temp;Humidity;BMP_temperature;BMP_pressure;BME280_temperature;BME280_humidity;BME280_pressure;Samples;Min_cycle;Max_cycle;Signal;HPM_P1;HPM_P2
2022/12/19 00:02:06;;;;;;;16.38;8.65;;;;;;;-2.03;100.00;101424.41;6188546;28;20054;-89
2022/12/19 00:05:08;;;;;;;17.02;8.93;;;;;;;-2.01;100.00;101422.69;6197559;28;20077;-89
2022/12/19 00:08:15;;;;;;;18.33;8.27;;;;;;;-1.96;100.00;101417.56;6193482;28;20053;-89
2022/12/19 00:11:21;;;;;;;19.40;8.43;;;;;;;-1.88;100.00;101414.94;6200115;28;20046;-89
2022/12/19 00:14:23;;;;;;;15.95;8.65;;;;;;;-1.87;100.00;101414.06;6203389;28;20046;-89
2022/12/19 00:17:24;;;;;;;15.85;8.43;;;;;;;-1.87;100.00;101414.06;6201875;28;20046;-89
2022/12/19 00:20:26;;;;;;;21.13;9.60;;;;;;;-1.88;100.00;101420.00;6208181;28;20053;-89
2022/12/19 00:23:30;;;;;;;18.73;8.52;;;;;;;-1.83;100.00;101420.78;6207297;28;20046;-89
2022/12/19 00:26:35;;;;;;;17.48;8.07;;;;;;;-1.79;100.00;101417.31;6204652;28;20042;-89
2022/12/19 00:29:37;;;;;;;17.92;9.18;;;;;;;-1.75;100.00;101427.41;6193113;28;20049;-89
2022/12/19 00:32:39;;;;;;;20.15;8.38;;;;;;;-1.72;100.00;101416.38;6202297;28;20045;-89
2022/12/19 00:35:40;;;;;;;18.48;9.05;;;;;;;-1.71;100.00;101420.63;6203684;28;20056;-89
2022/12/19 00:38:45;;;;;;;17.55;8.63;;;;;;;-1.66;100.00;101415.50;6200695;28;20068;-89
2022/12/19 00:41:47;;;;;;;17.27;8.98;;;;;;;-1.63;100.00;101418.81;6202564;28;20068;-89
2022/12/19 00:44:49;;;;;;;21.33;9.13;;;;;;;-1.60;100.00;101418.75;6206726;28;20050;-89
2022/12/19 00:47:51;;;;;;;22.98;10.68;;;;;;;-1.58;100.00;101414.50;6210756;28;20050;-89
2022/12/19 00:51:09;;;;;;;22.35;10.25;;;;;;;-1.53;100.00;101397.50;6187348;28;20042;-89
2022/12/19 00:54:11;;;;;;;19.15;9.88;;;;;;;-1.49;100.00;101398.31;6190622;28;20508;-89
2022/12/19 00:57:13;;;;;;;18.45;8.50;;;;;;;-1.46;100.00;101397.44;6212346;28;20146;-89
2022/12/19 01:00:16;;;;;;;20.05;9.05;;;;;;;-1.44;100.00;101401.63;6205320;28;20152;-89
2022/12/19 01:03:18;;;;;;;19.55;9.07;;;;;;;-1.45;100.00;101412.63;6193240;28;20042;-89
2022/12/19 01:06:19;;;;;;;19.63;9.38;;;;;;;-1.45;100.00;101404.16;6199127;28;20514;-89
2022/12/19 01:09:22;;;;;;;19.17;10.18;;;;;;;-1.49;100.00;101398.31;6192055;28;20334;-89
2022/12/19 01:15:45;;;;;;;21.90;10.43;;;;;;;-1.48;100.00;101396.59;6202687;28;20041;-89
2022/12/19 01:18:47;;;;;;;18.95;8.98;;;;;;;-1.47;100.00;101416.03;6221559;28;20038;-89
2022/12/19 01:21:48;;;;;;;21.25;10.02;;;;;;;-1.43;100.00;101413.44;6192486;28;20104;-89
2022/12/19 01:24:50;;;;;;;24.00;10.43;;;;;;;-1.41;100.00;101405.81;6206900;28;20050;-89
2022/12/19 01:27:54;;;;;;;22.98;10.02;;;;;;;-1.37;100.00;101402.34;6220310;28;20451;-89
2022/12/19 01:30:57;;;;;;;23.25;9.73;;;;;;;-1.33;100.00;101396.38;6209670;28;20053;-89
2022/12/19 01:33:59;;;;;;;22.05;10.50;;;;;;;-1.26;100.00;101387.78;6206373;28;20049;-89
2022/12/19 01:37:02;;;;;;;17.67;8.90;;;;;;;-1.25;100.00;101388.63;6212124;28;20070;-89
2022/12/19 01:40:04;;;;;;;19.95;9.73;;;;;;;-1.27;100.00;101372.56;6218252;28;20585;-89
2022/12/19 01:43:12;;;;;;;22.27;9.82;;;;;;;-1.25;100.00;101374.22;6208024;28;20037;-89
2022/12/19 01:46:15;;;;;;;22.52;10.23;;;;;;;-1.26;100.00;101359.84;6206981;28;20045;-89
2022/12/19 01:49:30;;;;;;;17.27;9.27;;;;;;;-1.28;100.00;101369.19;6191394;28;20055;-89
2022/12/19 01:52:31;;;;;;;;;;;;;;;-1.28;100.00;101363.28;6209995;28;20056;-89
2022/12/19 01:55:36;;;;;;;20.05;10.18;;;;;;;-1.26;100.00;101359.03;6206591;28;19925;-89
2022/12/19 01:58:42;;;;;;;19.65;10.15;;;;;;;-1.25;100.00;101363.22;6200786;28;20527;-89
2022/12/19 02:01:44;;;;;;;20.73;9.50;;;;;;;-1.27;100.00;101344.63;6186461;28;20050;-90
2022/12/19 02:04:55;;;;;;;20.58;9.50;;;;;;;-1.27;100.00;101342.09;6217262;28;20046;-89
2022/12/19 02:07:59;;;;;;;18.33;9.68;;;;;;;-1.25;100.00;101338.66;6196785;28;20695;-89
2022/12/19 02:11:00;;;;;;;20.00;10.18;;;;;;;-1.26;100.00;101326.00;6200182;28;20049;-90
2022/12/19 02:14:03;;;;;;;19.70;9.73;;;;;;;-1.23;100.00;101329.31;6187927;28;20050;-89
2022/12/19 02:17:40;;;;;;;20.48;10.05;;;;;;;-1.21;100.00;101314.06;6208783;28;20073;-90
2022/12/19 02:21:13;;;;;;;22.55;10.95;;;;;;;-1.20;100.00;101313.19;6210418;28;20050;-90
2022/12/19 02:24:53;;;;;;;20.48;9.40;;;;;;;-1.19;100.00;101310.63;6202756;28;20534;-90
2022/12/19 02:28:32;;;;;;;23.13;10.13;;;;;;;-1.16;100.00;101308.03;6206955;28;20292;-90
2022/12/19 02:31:47;;;;;;;21.77;10.05;;;;;;;-1.15;100.00;101301.25;6223294;28;20046;-89
2022/12/19 02:34:52;;;;;;;21.92;9.52;;;;;;;-1.11;100.00;101302.88;6214490;28;20415;-89
2022/12/19 02:38:03;;;;;;;20.85;10.25;;;;;;;-1.12;100.00;101298.63;6196749;28;20038;-89
2022/12/19 02:41:14;;;;;;;20.25;9.85;;;;;;;-1.11;100.00;101297.78;6205922;28;20716;-89
2022/12/19 02:44:26;;;;;;;21.00;9.57;;;;;;;-1.09;100.00;101294.34;6229943;28;20757;-89
2022/12/19 02:47:31;;;;;;;20.70;10.00;;;;;;;-1.10;100.00;101287.59;6207760;28;20046;-89
2022/12/19 02:50:43;;;;;;;20.10;10.10;;;;;;;-1.04;100.00;101281.56;6225314;28;20056;-89
2022/12/19 02:53:48;;;;;;;21.08;9.63;;;;;;;-1.01;100.00;101265.44;6214288;28;20052;-89
2022/12/19 02:57:18;;;;;;;17.85;9.45;;;;;;;-1.00;100.00;101264.56;6205161;28;20046;-89
2022/12/19 03:00:23;;;;;;;21.35;10.15;;;;;;;-1.01;100.00;101265.44;6199115;28;20069;-89
2022/12/19 03:03:54;;;;;;;22.77;10.55;;;;;;;-0.99;100.00;101263.72;6210668;28;20038;-89
2022/12/19 03:07:15;;;;;;;;;;;;;;;-0.97;100.00;101261.94;6172346;28;20516;-89
2022/12/19 03:10:25;;;;;;;25.17;10.20;;;;;;;-0.96;100.00;101259.38;6170338;28;20291;-89
2022/12/19 03:13:38;;;;;;;18.70;9.30;;;;;;;-0.94;100.00;101259.38;6164316;28;20483;-89
2022/12/19 03:16:40;;;;;;;15.93;8.50;;;;;;;-0.92;100.00;101258.47;6160753;28;20043;-89
2022/12/19 03:19:42;;;;;;;20.73;11.10;;;;;;;-0.92;100.00;101255.06;6169843;28;20093;-89
2022/12/19 03:22:44;;;;;;;19.33;9.77;;;;;;;-0.91;100.00;101254.22;6171101;28;20042;-89
2022/12/19 03:25:51;;;;;;;19.05;9.68;;;;;;;-0.89;100.00;101257.56;6163400;28;20519;-89
2022/12/19 03:29:30;;;;;;;17.20;8.48;;;;;;;-0.87;100.00;101250.72;6177843;28;20515;-89
2022/12/19 03:32:35;;;;;;;21.17;9.52;;;;;;;-0.88;100.00;101242.28;6169731;28;20058;-89
2022/12/19 03:35:40;;;;;;;18.55;10.15;;;;;;;-0.89;100.00;101232.16;6161676;28;20591;-89
2022/12/19 03:38:44;;;;;;;20.52;10.13;;;;;;;-0.88;100.00;101232.13;6170917;28;20047;-89
2022/12/19 03:45:10;;;;;;;15.75;9.38;;;;;;;-0.87;100.00;101238.88;6207512;28;20054;-89
2022/12/19 03:48:24;;;;;;;23.25;10.30;;;;;;;-0.84;100.00;101235.44;6224289;28;20050;-89
2022/12/19 03:51:40;;;;;;;21.75;9.88;;;;;;;-0.83;100.00;101224.41;6210123;28;20050;-89
2022/12/19 03:54:50;;;;;;;22.70;10.15;;;;;;;-0.84;100.00;101220.19;6200781;28;20540;-89
2022/12/19 03:57:57;;;;;;;20.33;9.70;;;;;;;-0.82;100.00;101215.94;6203591;28;20459;-89
2022/12/19 04:01:00;;;;;;;17.83;10.43;;;;;;;-0.80;100.00;101216.69;6197354;28;20061;-89
2022/12/19 04:04:05;;;;;;;23.13;10.93;;;;;;;-0.78;100.00;101209.88;6200447;28;20188;-89
2022/12/19 04:07:07;;;;;;;21.30;10.48;;;;;;;-0.76;100.00;101184.44;6210493;28;20047;-89
2022/12/19 04:10:19;;;;;;;20.45;9.15;;;;;;;-0.76;100.00;101180.19;6191858;28;20508;-89
2022/12/19 04:13:43;;;;;;;19.00;9.35;;;;;;;-0.69;100.00;101169.03;6210695;28;20050;-89
2022/12/19 04:17:14;;;;;;;19.73;9.95;;;;;;;-0.67;100.00;101164.75;6203928;28;20046;-89
2022/12/19 04:20:25;;;;;;;20.70;9.63;;;;;;;-0.68;100.00;101144.44;6195954;28;20614;-89
2022/12/19 04:23:39;;;;;;;;;;;;;;;-0.64;100.00;101135.88;6205849;28;20517;-89
2022/12/19 04:26:46;;;;;;;20.58;9.75;;;;;;;-0.59;100.00;101126.44;6194915;28;19979;-90
2022/12/19 04:29:54;;;;;;;17.38;9.15;;;;;;;-0.61;100.00;101134.97;6202867;28;20049;-89
2022/12/19 04:32:56;;;;;;;22.65;9.57;;;;;;;-0.65;100.00;101136.75;6203246;28;20046;-90
2022/12/19 04:35:59;;;;;;;22.48;10.05;;;;;;;-0.66;100.00;101122.38;6207785;28;20144;-89
2022/12/19 04:39:00;;;;;;;19.65;10.90;;;;;;;-0.66;100.00;101117.28;6205966;28;20534;-89
2022/12/19 04:42:02;;;;;;;23.63;10.63;;;;;;;-0.68;100.00;101130.03;6194030;28;20046;-89
2022/12/19 04:45:05;;;;;;;21.80;11.25;;;;;;;-0.66;100.00;101123.19;6206162;28;20038;-90
2022/12/19 04:48:07;;;;;;;20.70;9.98;;;;;;;-0.60;100.00;101121.38;6200661;28;20058;-89
2022/12/19 04:51:09;;;;;;;18.77;9.55;;;;;;;-0.60;100.00;101109.50;6200034;28;20761;-89
2022/12/19 04:54:11;;;;;;;22.05;10.40;;;;;;;-0.51;100.00;101096.59;6221702;28;20041;-89
2022/12/19 04:57:13;;;;;;;22.95;10.48;;;;;;;-0.54;100.00;101083.94;6208943;28;20602;-89
2022/12/19 05:00:15;;;;;;;22.55;10.52;;;;;;;-0.43;100.00;101076.06;6208178;28;20034;-88
2022/12/19 05:03:17;;;;;;;20.48;10.77;;;;;;;-0.49;100.00;101079.59;6212904;28;20740;-88
2022/12/19 05:06:19;;;;;;;20.25;10.25;;;;;;;-0.50;100.00;101077.06;6194762;28;20053;-89
2022/12/19 05:09:20;;;;;;;20.75;10.15;;;;;;;-0.58;100.00;101073.88;6204140;28;20044;-88
2022/12/19 05:12:22;;;;;;;20.90;9.98;;;;;;;-0.55;100.00;101076.34;6205318;28;20741;-88
2022/12/19 05:15:24;;;;;;;23.65;10.63;;;;;;;-0.54;100.00;101076.31;6208321;28;20594;-88
2022/12/19 05:18:26;;;;;;;20.95;9.95;;;;;;;-0.55;100.00;101053.47;6207581;28;20042;-87
2022/12/19 05:21:28;;;;;;;22.42;10.93;;;;;;;-0.58;100.00;101061.16;6199596;28;20046;-88
2022/12/19 05:24:29;;;;;;;23.88;11.38;;;;;;;-0.64;100.00;101061.34;6209929;28;20549;-88
2022/12/19 05:27:31;;;;;;;18.90;9.02;;;;;;;-0.60;100.00;101062.91;6199389;28;20038;-88
2022/12/19 05:30:33;;;;;;;21.55;11.25;;;;;;;-0.63;100.00;101053.66;6209999;28;20045;-88
2022/12/19 05:33:37;;;;;;;22.05;10.70;;;;;;;-0.65;100.00;101052.84;6202899;28;20046;-88
2022/12/19 05:36:39;;;;;;;22.48;9.82;;;;;;;-0.71;100.00;101058.91;6197193;28;20049;-88
2022/12/19 05:39:41;;;;;;;22.15;10.63;;;;;;;-0.70;100.00;101060.56;6204598;28;20751;-88
2022/12/19 05:42:43;;;;;;;24.88;10.35;;;;;;;-0.73;100.00;101060.66;6212375;28;20042;-88
2022/12/19 05:45:45;;;;;;;20.13;10.52;;;;;;;-0.76;100.00;101065.00;6192847;28;20046;-88
2022/12/19 05:48:46;;;;;;;20.67;10.30;;;;;;;-0.73;100.00;101059.81;6210783;28;20185;-88
2022/12/19 05:51:48;;;;;;;22.90;10.65;;;;;;;-0.73;100.00;101059.81;6201141;28;20046;-87
2022/12/19 05:54:50;;;;;;;22.85;11.02;;;;;;;-0.71;100.00;101048.75;6202604;28;20232;-89
2022/12/19 05:57:52;;;;;;;22.98;11.60;;;;;;;-0.68;100.00;101042.75;6210525;28;20046;-88
2022/12/19 06:00:54;;;;;;;22.70;11.27;;;;;;;-0.64;100.00;101033.38;6208279;28;20038;-89
2022/12/19 06:04:03;;;;;;;23.15;11.23;;;;;;;-0.61;100.00;101030.75;6197492;28;20046;-89
2022/12/19 06:07:05;;;;;;;24.17;10.70;;;;;;;-0.67;100.00;101022.41;6198450;28;20423;-89
2022/12/19 06:10:07;;;;;;;22.27;11.00;;;;;;;-0.67;100.00;101017.31;6199929;28;20030;-90
2022/12/19 06:13:08;;;;;;;22.35;10.90;;;;;;;-0.67;100.00;101024.94;6210888;28;21132;-89
2022/12/19 06:16:16;;;;;;;25.45;11.25;;;;;;;-0.65;100.00;101027.44;6191736;28;20050;-90
2022/12/19 06:19:19;;;;;;;22.52;10.88;;;;;;;-0.67;100.00;101035.09;6200930;28;20042;-90
2022/12/19 06:22:22;;;;;;;26.00;10.95;;;;;;;-0.62;100.00;101029.91;6199874;28;20030;-90
2022/12/19 06:25:24;;;;;;;26.30;11.98;;;;;;;-0.60;100.00;101034.94;6213376;28;20041;-91
2022/12/19 06:28:28;;;;;;;29.88;11.45;;;;;;;-0.56;100.00;101024.66;6201309;28;20041;-92
2022/12/19 06:31:30;;;;;;;31.08;12.77;;;;;;;-0.58;100.00;101026.41;6206421;28;20069;-92
2022/12/19 06:34:32;;;;;;;25.40;11.50;;;;;;;-0.59;100.00;101031.53;6208573;28;20086;-92
2022/12/19 06:37:54;;;;;;;27.15;12.35;;;;;;;-0.58;100.00;101035.75;6211235;28;20057;-94
2022/12/19 06:44:23;;;;;;;25.63;11.35;;;;;;;-0.57;100.00;101045.91;6204363;28;20850;-94
2022/12/19 06:47:25;;;;;;;25.73;11.75;;;;;;;-0.58;100.00;101053.53;6193722;28;20049;-94
2022/12/19 06:50:27;;;;;;;27.20;11.65;;;;;;;-0.58;100.00;101053.53;6222300;28;20046;-95
2022/12/19 06:53:33;;;;;;;23.17;12.13;;;;;;;-0.56;100.00;101051.81;6225812;28;20046;-95
2022/12/19 06:56:36;;;;;;;27.65;12.82;;;;;;;-0.59;100.00;101057.81;6197374;28;20054;-95
2022/12/19 06:59:43;;;;;;;21.60;11.30;;;;;;;-0.58;100.00;101073.88;6210201;28;20049;-95
2022/12/19 07:06:53;;;;;;;26.25;12.43;;;;;;;-0.57;100.00;101076.41;6200339;28;20062;-95
2022/12/19 07:10:01;;;;;;;28.40;11.85;;;;;;;-0.56;100.00;101067.06;6219875;28;20053;-96
2022/12/19 07:13:04;;;;;;;24.60;12.85;;;;;;;-0.52;100.00;101073.72;6212555;28;20054;-96
2022/12/19 07:16:31;;;;;;;;;;;;;;;;;;;;;
2022/12/19 07:19:44;;;;;;;24.85;11.65;;;;;;;-0.37;100.00;101078.47;6214910;28;20057;-95
2022/12/19 07:23:15;;;;;;;27.17;13.10;;;;;;;-0.33;100.00;101072.41;6202470;28;20551;-96
2022/12/19 07:26:33;;;;;;;30.27;12.18;;;;;;;-0.30;100.00;101064.72;6203160;28;20172;-96
2022/12/19 07:30:16;;;;;;;27.40;13.40;;;;;;;-0.16;100.00;101063.53;6208955;28;20174;-96
2022/12/19 07:34:35;;;;;;;31.00;13.07;;;;;;;-0.13;100.00;101064.25;6166532;28;20054;-96
2022/12/19 07:38:08;;;;;;;28.60;13.95;;;;;;;-0.10;100.00;101058.25;6171703;28;20858;-96
2022/12/19 07:41:17;;;;;;;29.25;12.63;;;;;;;-0.10;100.00;101050.63;6170386;28;20085;-96
2022/12/19 07:44:29;;;;;;;26.88;12.75;;;;;;;-0.08;100.00;101041.25;6163215;28;20457;-96
2022/12/19 07:47:42;;;;;;;26.13;12.82;;;;;;;0.01;100.00;101035.09;6166475;28;20690;-96
2022/12/19 07:51:11;;;;;;;28.65;13.77;;;;;;;0.04;100.00;101027.38;6145525;28;20564;-96
2022/12/19 07:54:22;;;;;;;32.58;14.23;;;;;;;0.10;100.00;101025.50;6160967;28;20042;-96
2022/12/19 07:57:49;;;;;;;27.20;13.55;;;;;;;0.15;100.00;101023.66;6161146;28;20386;-96
2022/12/19 08:01:01;;;;;;;28.75;13.48;;;;;;;0.22;100.00;101026.84;6165071;28;20046;-96
2022/12/19 08:04:14;;;;;;;31.42;14.27;;;;;;;0.24;100.00;101025.09;6148966;28;20192;-96
2022/12/19 08:07:25;;;;;;;33.00;14.48;;;;;;;0.25;100.00;101013.19;6177798;28;20516;-96
2022/12/19 08:10:37;;;;;;;32.67;13.73;;;;;;;0.28;100.00;101001.22;6162053;28;20035;-96
2022/12/19 08:13:50;;;;;;;29.73;13.85;;;;;;;0.37;100.00;101012.84;6178853;28;20058;-95
2022/12/19 08:17:00;;;;;;;28.42;13.40;;;;;;;0.41;100.00;100994.91;6161171;28;20054;-96
2022/12/19 08:20:22;;;;;;;27.75;13.77;;;;;;;0.49;100.00;100989.56;6161093;28;20046;-96
2022/12/19 08:23:25;;;;;;;28.45;13.65;;;;;;;0.54;100.00;100990.28;6180054;28;20053;-96
2022/12/19 08:26:28;;;;;;;28.20;12.45;;;;;;;0.59;100.00;100982.50;6161516;28;20048;-96
2022/12/19 08:29:39;;;;;;;27.83;13.25;;;;;;;0.64;100.00;100988.28;6158312;28;20042;-96
2022/12/19 08:32:43;;;;;;;30.33;13.80;;;;;;;0.69;100.00;100980.50;6162535;28;20034;-96
2022/12/19 08:35:45;;;;;;;30.95;14.20;;;;;;;0.72;100.00;100980.41;6160350;28;20758;-96
2022/12/19 08:39:10;;;;;;;29.52;13.90;;;;;;;0.77;100.00;100978.53;6176295;28;20053;-95
2022/12/19 08:42:20;;;;;;;30.08;13.07;;;;;;;0.79;100.00;100972.53;6172276;28;20042;-95
2022/12/19 08:45:22;;;;;;;31.25;12.68;;;;;;;0.80;100.00;100979.31;6156394;28;20493;-94
2022/12/19 08:48:25;;;;;;;26.08;13.10;;;;;;;0.82;100.00;100981.78;6169558;28;20061;-95
2022/12/19 08:51:27;;;;;;;26.70;13.45;;;;;;;0.84;100.00;100990.22;6157009;28;20047;-96
2022/12/19 08:54:32;;;;;;;25.52;13.25;;;;;;;0.84;100.00;100991.03;6143848;28;20310;-95
2022/12/19 08:57:35;;;;;;;23.80;12.18;;;;;;;0.85;100.00;100994.44;6178026;28;20071;-96
2022/12/19 09:00:45;;;;;;;25.70;12.85;;;;;;;0.87;100.00;100997.78;6148003;28;20043;-95
2022/12/19 09:04:00;;;;;;;21.33;12.07;;;;;;;0.88;100.00;100989.25;6153383;28;20497;-95
2022/12/19 09:07:22;;;;;;;21.92;10.98;;;;;;;0.88;100.00;100993.53;6171751;28;20484;-95
2022/12/19 09:10:24;;;;;;;22.85;10.88;;;;;;;0.96;100.00;100991.56;6155771;28;20049;-95
2022/12/19 09:13:27;;;;;;;21.73;10.05;;;;;;;1.02;100.00;100989.66;6151909;28;20070;-95
2022/12/19 09:16:29;;;;;;;20.90;11.27;;;;;;;1.04;100.00;101000.66;6155551;28;20046;-94
2022/12/19 09:19:31;;;;;;;20.95;10.98;;;;;;;1.07;100.00;100992.06;6168491;28;20038;-95
2022/12/19 09:22:33;;;;;;;20.90;10.98;;;;;;;1.12;100.00;101000.41;6153724;28;20043;-95
2022/12/19 09:25:36;;;;;;;19.15;10.02;;;;;;;1.18;100.00;101002.72;6158767;28;20298;-95
2022/12/19 09:28:39;;;;;;;18.10;9.52;;;;;;;1.24;100.00;100999.16;6147623;28;20051;-94
2022/12/19 09:31:41;;;;;;;19.30;9.68;;;;;;;1.20;100.00;100995.88;6157667;28;20216;-94
2022/12/19 09:34:43;;;;;;;23.55;10.50;;;;;;;1.22;100.00;100995.84;6156157;28;20054;-95
2022/12/19 09:37:45;;;;;;;17.88;9.25;;;;;;;1.24;100.00;100989.81;6172658;28;20055;-94
2022/12/19 09:41:24;;;;;;;21.08;10.07;;;;;;;1.31;100.00;100992.97;6161832;28;20047;-94
2022/12/19 09:44:35;;;;;;;16.92;9.32;;;;;;;1.36;100.00;100985.16;6148680;28;20162;-94
2022/12/19 09:47:42;;;;;;;19.15;9.93;;;;;;;1.42;100.00;101002.84;6163756;28;20031;-94
2022/12/19 09:50:55;;;;;;;20.02;9.63;;;;;;;1.48;100.00;100990.69;6158103;28;20104;-94
2022/12/19 09:54:17;;;;;;;18.63;9.50;;;;;;;1.53;100.00;100992.25;6149777;28;20130;-93
2022/12/19 09:57:34;;;;;;;18.02;10.07;;;;;;;1.53;100.00;100994.81;6152273;28;20105;-93
2022/12/19 10:00:47;;;;;;;17.27;10.18;;;;;;;1.56;100.00;100969.19;6167507;28;20073;-93
2022/12/19 10:04:08;;;;;;;19.67;9.63;;;;;;;1.60;100.00;100981.78;6159913;28;20134;-93
2022/12/19 10:07:10;;;;;;;19.00;10.13;;;;;;;1.71;100.00;100973.75;6149041;28;20393;-94
2022/12/19 10:10:54;;;;;;;17.27;9.65;;;;;;;1.74;100.00;100973.66;6165883;28;20039;-93
2022/12/19 10:15:01;;;;;;;18.20;9.55;;;;;;;1.77;100.00;100959.97;6151968;28;20051;-93
2022/12/19 10:18:31;;;;;;;20.50;10.40;;;;;;;1.86;100.00;100957.91;6160512;28;20046;-93
2022/12/19 10:22:08;;;;;;;20.98;10.75;;;;;;;1.89;100.00;100947.59;6155724;28;20426;-92
2022/12/19 10:25:41;;;;;;;19.77;10.07;;;;;;;1.89;100.00;100949.31;6146277;28;20035;-93
2022/12/19 10:29:21;;;;;;;21.25;10.98;;;;;;;1.92;100.00;100949.19;6164397;28;20121;-92
2022/12/19 10:32:39;;;;;;;22.40;11.93;;;;;;;1.94;100.00;100953.38;6146236;28;20047;-92
2022/12/19 10:35:44;;;;;;;23.48;12.18;;;;;;;1.98;100.00;100941.31;6151335;28;20039;-92
2022/12/19 10:39:13;;;;;;;21.90;11.88;;;;;;;1.99;100.00;100932.78;6163111;28;20483;-94
2022/12/19 10:42:36;;;;;;;25.10;12.23;;;;;;;2.01;100.00;100930.97;6160602;28;20055;-94
2022/12/19 10:45:44;;;;;;;20.02;11.27;;;;;;;2.09;100.00;100936.66;6162000;28;20043;-94
2022/12/19 10:48:51;;;;;;;20.98;11.48;;;;;;;2.18;100.00;100926.97;6165744;28;20051;-94
2022/12/19 10:51:59;;;;;;;24.85;13.02;;;;;;;2.27;100.00;100912.13;6158023;28;20045;-94
2022/12/19 10:55:01;;;;;;;22.70;11.73;;;;;;;2.39;100.00;100904.91;6181658;28;20051;-95
2022/12/19 10:58:34;;;;;;;24.20;12.55;;;;;;;2.52;100.00;100906.09;6175084;28;20055;-95
2022/12/19 11:01:37;;;;;;;22.48;11.75;;;;;;;2.58;100.00;100905.81;6153253;28;20468;-94
2022/12/19 11:04:41;;;;;;;24.70;13.23;;;;;;;2.60;100.00;100906.59;6165803;28;20567;-95
2022/12/19 11:08:04;;;;;;;26.85;13.15;;;;;;;2.56;100.00;100895.69;6168341;28;20050;-95
2022/12/19 11:11:10;;;;;;;26.88;13.52;;;;;;;2.57;100.00;100904.19;6145150;28;20090;-95
2022/12/19 11:14:35;;;;;;;29.73;13.35;;;;;;;2.59;100.00;100897.28;6139263;28;20182;-95
2022/12/19 11:18:08;;;;;;;26.30;12.48;;;;;;;2.63;100.00;100893.69;6125001;28;20047;-95
2022/12/19 11:21:32;;;;;;;25.27;13.45;;;;;;;2.65;100.00;100886.81;6131257;28;20059;-96
2022/12/19 11:24:55;;;;;;;25.95;13.00;;;;;;;2.64;100.00;100874.09;6162291;28;20130;-96
2022/12/19 11:28:19;;;;;;;26.92;12.75;;;;;;;2.69;100.00;100873.00;6167571;28;20081;-96
2022/12/19 11:31:42;;;;;;;22.45;11.63;;;;;;;2.77;100.00;100875.25;6180558;28;20053;-95
2022/12/19 11:35:25;;;;;;;23.27;12.57;;;;;;;2.81;100.00;100871.69;6158428;28;20098;-96
2022/12/19 11:38:52;;;;;;;25.70;12.88;;;;;;;2.85;100.00;100870.66;6161338;28;20055;-96
2022/12/19 11:42:05;;;;;;;26.77;12.43;;;;;;;2.85;100.00;100865.53;6155539;28;20043;-95
2022/12/19 11:45:26;;;;;;;24.00;12.43;;;;;;;2.88;100.00;100851.81;6141699;28;20042;-94
2022/12/19 11:48:48;;;;;;;23.50;12.98;;;;;;;2.93;100.00;100855.00;6178175;28;20050;-95
2022/12/19 11:52:05;;;;;;;28.63;13.07;;;;;;;2.99;100.00;100803.59;6166023;28;20031;-95
2022/12/19 11:55:46;;;;;;;25.83;12.80;;;;;;;3.02;100.00;100806.03;6176265;28;20148;-95
2022/12/19 11:58:52;;;;;;;25.58;13.55;;;;;;;3.05;100.00;100798.22;6086586;29;20147;-95
2022/12/19 12:02:29;;;;;;;25.17;14.05;;;;;;;3.04;100.00;100806.81;6090938;29;20052;-95
2022/12/19 12:05:46;;;;;;;24.85;13.05;;;;;;;3.02;100.00;100798.34;6034212;29;20072;-95
2022/12/19 12:09:15;;;;;;;25.38;13.02;;;;;;;2.99;100.00;100806.16;6045603;29;20088;-95
2022/12/19 12:12:56;;;;;;;24.30;12.65;;;;;;;2.98;100.00;100792.56;6044992;29;20238;-95
2022/12/19 12:16:23;;;;;;;;;;;;;;;3.01;100.00;100794.97;6044134;29;20097;-95
2022/12/19 12:19:47;;;;;;;25.55;13.77;;;;;;;3.07;100.00;100782.81;6030238;29;19923;-94
2022/12/19 12:23:27;;;;;;;28.52;14.88;;;;;;;3.15;100.00;100761.09;6040043;29;20057;-94
2022/12/19 12:27:06;;;;;;;24.00;12.93;;;;;;;3.27;100.00;100764.03;6044901;29;20629;-94
2022/12/19 12:30:40;;;;;;;28.65;13.65;;;;;;;3.27;100.00;100759.75;6043134;29;20045;-94
2022/12/19 12:34:17;;;;;;;29.92;14.23;;;;;;;3.28;100.00;100774.22;6076218;28;20436;-93
2022/12/19 12:38:08;;;;;;;30.23;15.45;;;;;;;3.26;100.00;100778.56;6125637;28;20043;-93
2022/12/19 12:42:04;;;;;;;25.85;13.32;;;;;;;3.26;100.00;100788.78;6148672;28;20075;-93
2022/12/19 12:45:18;;;;;;;24.90;12.93;;;;;;;3.29;100.00;100772.47;6160934;28;20452;-93
2022/12/19 12:48:59;;;;;;;27.10;12.45;;;;;;;3.34;100.00;100768.81;6154403;28;20050;-93
2022/12/19 12:52:03;;;;;;;;;;;;;;;3.38;100.00;100761.81;6148361;28;20169;-92
2022/12/19 12:55:14;;;;;;;23.40;11.95;;;;;;;3.37;100.00;100753.31;6149930;28;19930;-92
2022/12/19 12:58:41;;;;;;;24.77;13.10;;;;;;;3.39;100.00;100773.72;6169215;28;20066;-92
2022/12/19 13:01:53;;;;;;;27.13;13.52;;;;;;;3.39;100.00;100766.03;6165122;28;20055;-92
2022/12/19 13:04:59;;;;;;;25.20;12.98;;;;;;;3.38;100.00;100772.03;6168535;28;20054;-92
2022/12/19 13:08:33;;;;;;;30.15;13.00;;;;;;;3.36;100.00;100769.56;6158266;28;20046;-91
2022/12/19 13:15:28;;;;;;;26.77;13.35;;;;;;;3.35;100.00;100770.44;6155417;28;20035;-92
2022/12/19 13:18:33;;;;;;;23.75;12.38;;;;;;;3.32;100.00;100775.72;6174077;28;20054;-92
2022/12/19 13:22:06;;;;;;;28.05;13.52;;;;;;;3.34;100.00;100760.31;6153448;28;20521;-92
2022/12/19 13:25:33;;;;;;;26.05;13.35;;;;;;;3.34;100.00;100752.63;6151876;28;20057;-92
2022/12/19 13:28:38;;;;;;;29.23;13.35;;;;;;;3.34;100.00;100757.75;6148400;28;20102;-91
2022/12/19 13:32:10;;;;;;;25.83;13.82;;;;;;;3.30;100.00;100767.28;6147928;28;20568;-91
2022/12/19 13:35:12;;;;;;;27.58;13.70;;;;;;;3.31;100.00;100763.00;6146486;28;20035;-91
2022/12/19 13:38:46;;;;;;;26.17;13.20;;;;;;;3.32;100.00;100751.88;6163803;28;20069;-91
2022/12/19 13:45:31;;;;;;;27.80;13.40;;;;;;;3.30;100.00;100749.38;6145925;28;20039;-91
2022/12/19 13:48:45;;;;;;;28.50;13.48;;;;;;;3.26;100.00;100759.84;6151987;28;20051;-91
2022/12/19 13:51:51;;;;;;;27.08;13.07;;;;;;;3.23;100.00;100771.84;6149863;28;20050;-91
2022/12/19 13:54:57;;;;;;;24.40;12.35;;;;;;;3.16;100.00;100779.88;6160004;28;20062;-89
2022/12/19 13:58:02;;;;;;;28.58;13.88;;;;;;;3.09;100.00;100784.41;6163457;28;20050;-88
2022/12/19 14:01:17;;;;;;;28.88;14.48;;;;;;;2.99;100.00;100775.47;6143231;28;20141;-91
2022/12/19 14:04:32;;;;;;;27.75;14.00;;;;;;;2.91;100.00;100783.50;6166905;28;20154;-91
2022/12/19 14:07:38;;;;;;;26.98;14.07;;;;;;;2.91;100.00;100773.25;6163864;28;20449;-91
2022/12/19 14:10:44;;;;;;;27.38;13.57;;;;;;;2.92;100.00;100779.19;6153598;28;20120;-91
2022/12/19 14:17:34;;;;;;;30.70;14.80;;;;;;;2.86;100.00;100784.56;6181211;28;20528;-91
2022/12/19 14:20:36;;;;;;;29.15;13.63;;;;;;;2.86;100.00;100772.63;6166154;28;20122;-91
2022/12/19 14:24:22;;;;;;;26.98;12.43;;;;;;;2.89;100.00;100774.22;6163373;28;20039;-92
2022/12/19 14:27:35;;;;;;;30.40;14.65;;;;;;;2.89;100.00;100772.50;6180750;28;20090;-91
2022/12/19 14:31:01;;;;;;;28.65;13.75;;;;;;;2.89;100.00;100766.56;6167314;28;20054;-91
2022/12/19 14:34:04;;;;;;;32.08;14.80;;;;;;;2.92;100.00;100791.97;6164402;28;20069;-90
2022/12/19 14:37:31;;;;;;;28.08;13.38;;;;;;;2.95;100.00;100790.09;6155574;28;20117;-91
2022/12/19 14:40:54;;;;;;;25.60;12.90;;;;;;;3.01;100.00;100789.03;6159654;28;20078;-90
2022/12/19 14:44:09;;;;;;;28.38;14.02;;;;;;;2.95;100.00;100792.66;6164387;28;20213;-91
2022/12/19 14:47:40;;;;;;;27.35;12.95;;;;;;;2.95;100.00;100789.28;6164034;28;20098;-90
2022/12/19 14:51:11;;;;;;;24.67;12.70;;;;;;;2.95;100.00;100785.00;6167712;28;20051;-91
2022/12/19 14:54:34;;;;;;;27.10;13.05;;;;;;;2.93;100.00;100775.72;6165069;28;20046;-91
2022/12/19 14:58:05;;;;;;;28.90;13.75;;;;;;;2.78;100.00;100774.66;6176687;28;20568;-90
2022/12/19 15:01:30;;;;;;;23.92;13.60;;;;;;;2.85;100.00;100760.72;6160341;28;20471;-91